Airfield :
LOGIN :

Register | Disclaimer

   EN    FR    IT 

 










Legend :    VFR   Marginal VFR   IFR   Intensive IFR   Very Intensive IFR
Visi :
Ceiling :
>= 8 km
>= 3000ft
5 to 8 km
1000 to 3000 ft
1500m to 5 km
500 to 1000 ft
800 to 1500m
200 to 500 ft
< 800m
< 200 ft
Symbols :   Thunderstorms  Fog  Heavy snow  Heavy precipitations  Wind > 20 kt
SIGMETs :     Misc.  Thunderstorms  Icing  Turbulence  Mountain Waves  Volcanic Ashes







- Airport Elevation : 266 ft
- IATA code : NCL
- Download approach charts


EGNT - Newcastle

CURRENT METAR :
  • 110650Z 24004KT CAVOK M06/M08 Q0986

EXPIRED METARs :
  • 110620Z 25004KT CAVOK M06/M08 Q0986
  • 110550Z 24003KT CAVOK M06/M07 Q0986
  • 110520Z 25003KT CAVOK M06/M08 Q0986
  • 110450Z 30002KT CAVOK M05/M07 Q0986
  • 110420Z 27003KT CAVOK M06/M07 Q0986

TAF TAF EGNT
Valid from the 11 at 06:00 until the 12 at 06:00 UTC


110456Z 1106/1206 30007KT 9999 FEW040
PROB30
TEMPO 1116/1204 4000 SHRASN
ATIS : +44 191 214 3400
No reported NOTAMs for that airfield.



MET'MAP, your aeronautical weather chart ! - Copyright ORBIFLY December 2007 - Disclaimer

ORBIFLY MET'MAP TEAM :

Programming & Development : Alexandra Zaïnal
Concept & Development : Baudouin d'Aumeries
Co-Development & Prog : Marc-Olivier Méhu
Technical & hardware support : Manuel Goepfert

Contact : metmap@orbifly.com




SOURCES & CREDITS :

   NOAA